»·PEaware :: N8671J KRBG-KOTH

N8671J :: KRBG-KOTH

FLIGHT INFORMATION

Flight Status: Arrived
Operator: Privately registered:
United States
More flights under this callsign
Pilot: Mike D. (17473)
Aircraft: PIPER PA-44 SEMINOLE
(PA44)
More flights by this aircraft type
Origin: KRBG Roseburg Regl
United States
Destination: KOTH North Bend Mun
United States
More flights between these airports :: More routes between these airports
Route: +RBG V121 OTH
File this flight plan on PilotEdge
Remarks:
Altitude:
(Current/Filed)
6,000ft
Speed:
(Current/Filed)
155kts
Departed: 15-May-18 11:31 AM
Arrived: 15-May-18 12:11 PM
Distance/Time
Traveled:
40nm/0:40
Distance/Time
To Go:
Arrived

Flight Plot

Page will automatically refresh every two minutes.

Flight plan parsing failed; only flown route is shown


Map Options




Map Legend


Flown Route
Filed Route
Departure Airport
Arrival Airport
Navaid (VOR, NDB)
Fix

Horizontal Profiles

Position Reports

Time Latitude Longitude Heading Altitude Ground
Speed
15-May-18 11:19 43.235215 -123.357359 359 533ft 0kts
15-May-18 11:20 43.235215 -123.357359 0 533ft 0kts
15-May-18 11:21 43.235215 -123.357359 0 533ft 0kts
15-May-18 11:22 43.235215 -123.357359 0 533ft 0kts
15-May-18 11:23 43.235215 -123.357359 0 533ft 0kts
15-May-18 11:24 43.235215 -123.357359 0 533ft 0kts
15-May-18 11:25 43.235215 -123.357359 0 533ft 0kts
15-May-18 11:26 43.235215 -123.357359 0 533ft 0kts
15-May-18 11:27 43.235215 -123.357359 0 533ft 0kts
15-May-18 11:28 43.235215 -123.357359 0 533ft 0kts
15-May-18 11:29 43.232726 -123.356791 213 533ft 13kts
15-May-18 11:30 43.232539 -123.356710 97 533ft 0kts
15-May-18 11:31 43.233423 -123.355858 359 533ft 45kts
15-May-18 11:32 43.259059 -123.354052 3 1727ft 108kts
15-May-18 11:33 43.287935 -123.352114 14 3305ft 107kts
15-May-18 11:34 43.305337 -123.375563 251 4365ft 113kts
15-May-18 11:35 43.276853 -123.375713 156 5269ft 121kts
15-May-18 11:36 43.245464 -123.357864 171 6050ft 131kts
15-May-18 11:37 43.203524 -123.353274 176 6066ft 164kts
15-May-18 11:38 43.170096 -123.377272 284 6052ft 167kts
15-May-18 11:39 43.203366 -123.421304 315 6059ft 169kts
15-May-18 11:40 43.219242 -123.481543 287 6063ft 168kts
15-May-18 11:41 43.236668 -123.541125 292 6063ft 168kts
15-May-18 11:42 43.253990 -123.598489 292 6063ft 168kts
15-May-18 11:43 43.270916 -123.656887 291 6073ft 167kts
15-May-18 11:44 43.288248 -123.716074 291 6084ft 166kts
15-May-18 11:45 43.305874 -123.774865 291 6095ft 166kts
15-May-18 11:46 43.323805 -123.833045 291 6106ft 165kts
15-May-18 11:47 43.340546 -123.891974 287 6109ft 165kts
15-May-18 11:48 43.355714 -123.951359 287 6108ft 162kts
15-May-18 11:49 43.371886 -124.008512 289 6109ft 159kts
15-May-18 11:50 43.388031 -124.064876 289 6107ft 154kts
15-May-18 11:51 43.403005 -124.116482 289 6107ft 138kts
15-May-18 11:52 43.416958 -124.164237 287 6016ft 138kts
15-May-18 11:53 43.414663 -124.220880 266 5325ft 155kts
15-May-18 11:54 43.412768 -124.279694 267 4515ft 151kts
15-May-18 11:55 43.410661 -124.336428 267 3611ft 147kts
15-May-18 11:56 43.408806 -124.390149 268 3105ft 124kts
15-May-18 11:57 43.407603 -124.436675 269 2476ft 122kts
15-May-18 11:58 43.392976 -124.469985 218 2312ft 105kts
15-May-18 11:59 43.369002 -124.491889 220 2316ft 104kts
15-May-18 12:00 43.348235 -124.518801 259 2311ft 101kts
15-May-18 12:01 43.368653 -124.522005 45 2316ft 114kts
15-May-18 12:02 43.389642 -124.488731 46 2315ft 115kts
15-May-18 12:03 43.407081 -124.452220 86 2234ft 125kts
15-May-18 12:04 43.409475 -124.402268 86 1641ft 134kts
15-May-18 12:05 43.411265 -124.355981 86 1475ft 110kts
15-May-18 12:06 43.413276 -124.310600 80 917ft 119kts
15-May-18 12:07 43.424841 -124.273574 54 971ft 101kts
15-May-18 12:08 43.439953 -124.240547 52 971ft 103kts
15-May-18 12:09 43.435159 -124.215930 208 684ft 89kts
15-May-18 12:10 43.422281 -124.242078 241 49ft 75kts
15-May-18 12:11 43.417664 -124.251172 150 22ft 0kts
15-May-18 12:12 43.417617 -124.251135 149 22ft 1kts
15-May-18 12:13 43.418441 -124.248472 60 22ft 12kts
15-May-18 12:14 43.417080 -124.245948 249 22ft 8kts
15-May-18 12:15 43.417308 -124.246711 330 22ft 0kts

Navigation Log

Ident Type
Flight plan parsing failed, navigation log unavailable